Time;durP1;ratioP1;P1;durP2;ratioP2;P2;SDS_P1;SDS_P2;PMS_P1;PMS_P2;Temp;Humidity;BMP_temperature;BMP_pressure;BME280_temperature;BME280_humidity;BME280_pressure;Samples;Min_cycle;Max_cycle;Signal;HPM_P1;HPM_P2
2022/03/07 00:01:35;;;;;;;3.42;1.35;;;13.30;54.60;;;;;;5073703;28;20048;-76
2022/03/07 00:04:02;;;;;;;5.55;1.52;;;13.30;54.50;;;;;;5053160;28;20045;-76
2022/03/07 00:06:28;;;;;;;3.53;1.20;;;13.20;54.40;;;;;;5039187;28;20136;-77
2022/03/07 00:08:54;;;;;;;3.67;1.20;;;13.20;54.30;;;;;;5056534;28;20132;-75
2022/03/07 00:11:20;;;;;;;4.60;1.13;;;13.10;54.20;;;;;;5056228;28;20076;-76
2022/03/07 00:13:46;;;;;;;3.88;1.30;;;13.10;54.20;;;;;;5039315;28;20120;-75
2022/03/07 00:16:13;;;;;;;6.07;1.80;;;13.10;54.10;;;;;;5056550;28;20117;-79
2022/03/07 00:18:38;;;;;;;4.25;1.08;;;13.10;54.00;;;;;;5055492;28;20044;-76
2022/03/07 00:21:06;;;;;;;2.60;0.93;;;13.10;53.90;;;;;;5060541;28;20037;-77
2022/03/07 00:23:31;;;;;;;3.55;1.30;;;13.00;53.80;;;;;;5076476;28;20067;-75
2022/03/07 00:25:57;;;;;;;2.45;1.00;;;13.00;53.80;;;;;;5058906;28;20052;-77
2022/03/07 00:28:23;;;;;;;3.72;0.98;;;13.00;53.90;;;;;;5076557;28;20427;-76
2022/03/07 00:30:48;;;;;;;2.35;1.00;;;13.00;53.80;;;;;;5076153;28;20037;-76
2022/03/07 00:33:16;;;;;;;3.67;1.20;;;12.90;53.70;;;;;;5058659;28;20052;-78
2022/03/07 00:35:41;;;;;;;4.07;1.80;;;12.90;53.80;;;;;;5075894;28;20368;-75
2022/03/07 00:38:07;;;;;;;3.75;1.08;;;12.80;53.80;;;;;;5057925;28;20060;-77
2022/03/07 00:40:33;;;;;;;3.30;1.30;;;12.80;53.70;;;;;;5075670;28;20088;-76
2022/03/07 00:42:59;;;;;;;3.17;1.17;;;12.80;53.80;;;;;;5075841;28;20049;-76
2022/03/07 00:45:25;;;;;;;4.28;1.10;;;12.80;53.70;;;;;;5076212;28;20352;-78
2022/03/07 00:47:50;;;;;;;2.30;0.68;;;12.80;53.70;;;;;;5058437;28;20045;-76
2022/03/07 00:50:16;;;;;;;3.42;1.05;;;12.80;53.60;;;;;;5075615;28;20059;-78
2022/03/07 00:52:42;;;;;;;5.60;1.17;;;12.70;53.50;;;;;;5054123;28;20041;-76
2022/03/07 00:55:08;;;;;;;4.93;1.25;;;12.70;54.10;;;;;;5055744;28;20080;-76
2022/03/07 00:57:34;;;;;;;3.17;0.93;;;12.70;53.40;;;;;;5055758;28;20337;-78
2022/03/07 01:00:00;;;;;;;3.92;1.30;;;12.70;53.30;;;;;;5037855;28;20064;-80
2022/03/07 01:02:25;;;;;;;4.43;1.00;;;12.70;54.00;;;;;;5037923;28;20056;-77
2022/03/07 01:04:51;;;;;;;3.67;1.23;;;12.70;53.40;;;;;;5038128;28;20150;-77
2022/03/07 01:07:17;;;;;;;4.78;1.00;;;12.60;53.30;;;;;;5037815;28;20460;-75
2022/03/07 01:09:42;;;;;;;3.30;1.10;;;12.60;53.30;;;;;;5054761;28;20056;-79
2022/03/07 01:12:08;;;;;;;3.83;1.17;;;12.60;53.30;;;;;;5021917;28;20130;-80
2022/03/07 01:14:35;;;;;;;5.55;0.90;;;12.60;53.30;;;;;;5037718;28;20131;-78
2022/03/07 01:17:00;;;;;;;5.85;1.23;;;12.60;53.30;;;;;;5038269;28;20368;-78
2022/03/07 01:19:26;;;;;;;3.38;1.10;;;12.60;53.40;;;;;;5038028;28;20049;-76
2022/03/07 01:21:52;;;;;;;3.42;1.48;;;12.50;53.40;;;;;;5054347;28;20049;-77
2022/03/07 01:24:18;;;;;;;2.13;0.82;;;12.50;53.40;;;;;;5055133;28;20041;-78
2022/03/07 01:26:45;;;;;;;3.53;0.98;;;12.50;53.40;;;;;;5037875;28;20079;-77
2022/03/07 01:29:11;;;;;;;3.33;1.05;;;12.50;53.50;;;;;;5038067;28;20365;-78
2022/03/07 01:31:37;;;;;;;3.20;1.20;;;12.40;53.40;;;;;;5037368;28;20048;-76
2022/03/07 01:34:03;;;;;;;1.73;0.82;;;12.40;53.40;;;;;;5054975;28;20041;-79
2022/03/07 01:36:28;;;;;;;3.25;1.15;;;12.40;53.40;;;;;;5055059;28;20128;-77
2022/03/07 01:38:54;;;;;;;3.85;0.80;;;12.40;53.30;;;;;;5055042;28;20446;-78
2022/03/07 01:41:20;;;;;;;2.00;0.93;;;12.30;53.10;;;;;;5055635;28;20135;-78
2022/03/07 01:43:45;;;;;;;2.65;0.85;;;12.40;53.20;;;;;;5054952;28;20041;-78
2022/03/07 01:46:11;;;;;;;5.00;1.45;;;12.40;53.10;;;;;;5037609;28;20132;-77
2022/03/07 01:48:38;;;;;;;3.58;1.17;;;12.30;52.90;;;;;;5037271;28;20098;-78
2022/03/07 01:51:07;;;;;;;3.25;0.98;;;12.30;53.20;;;;;;5061410;28;20048;-79
2022/03/07 01:53:32;;;;;;;2.75;1.05;;;12.20;53.30;;;;;;5074872;28;20051;-79
2022/03/07 01:55:58;;;;;;;3.67;1.08;;;12.20;53.20;;;;;;5075357;28;20053;-77
2022/03/07 01:58:24;;;;;;;4.80;1.58;;;12.20;53.30;;;;;;5075541;28;20140;-78
2022/03/07 02:00:49;;;;;;;3.67;1.30;;;12.20;53.40;;;;;;5074830;28;20048;-76
2022/03/07 02:03:15;;;;;;;4.43;1.30;;;12.20;53.40;;;;;;5058917;28;20112;-79
2022/03/07 02:05:42;;;;;;;3.00;1.23;;;12.20;53.30;;;;;;5054581;28;20432;-79
2022/03/07 02:08:07;;;;;;;3.60;1.10;;;12.20;53.20;;;;;;5054878;28;20049;-79
2022/03/07 02:10:33;;;;;;;2.92;1.10;;;12.10;53.00;;;;;;5054218;28;20052;-76
2022/03/07 02:12:59;;;;;;;4.15;1.48;;;12.10;53.70;;;;;;5055502;28;20072;-77
2022/03/07 02:15:25;;;;;;;4.75;1.30;;;12.10;53.10;;;;;;5054382;28;20459;-77
2022/03/07 02:17:51;;;;;;;3.90;1.15;;;12.10;53.00;;;;;;5037741;28;20107;-77
2022/03/07 02:20:17;;;;;;;3.42;1.20;;;12.10;53.00;;;;;;5038713;28;20100;-76
2022/03/07 02:22:43;;;;;;;3.40;0.98;;;12.10;52.90;;;;;;5058564;28;20049;-78
2022/03/07 02:25:09;;;;;;;2.22;0.80;;;12.00;52.90;;;;;;5040797;28;20053;-79
2022/03/07 02:27:35;;;;;;;3.25;0.90;;;12.00;53.00;;;;;;5041244;28;20130;-78
2022/03/07 02:30:05;;;;;;;2.45;0.85;;;12.00;52.90;;;;;;5057731;28;20106;-77
2022/03/07 02:32:31;;;;;;;4.60;0.88;;;12.00;53.00;;;;;;5067060;28;20372;-75
2022/03/07 02:34:57;;;;;;;4.03;1.20;;;12.00;53.00;;;;;;5077954;28;20063;-76
2022/03/07 02:37:23;;;;;;;4.45;0.98;;;12.00;52.90;;;;;;5078161;28;20045;-79
2022/03/07 02:39:48;;;;;;;4.03;1.00;;;11.90;52.80;;;;;;5060315;28;20448;-77
2022/03/07 02:42:14;;;;;;;4.15;1.10;;;11.90;52.70;;;;;;5078346;28;20158;-76
2022/03/07 02:44:40;;;;;;;2.72;0.90;;;11.90;52.80;;;;;;5060663;28;20066;-78
2022/03/07 02:47:06;;;;;;;3.63;1.05;;;11.90;52.80;;;;;;5078240;28;20051;-76
2022/03/07 02:49:33;;;;;;;2.65;0.95;;;11.90;52.80;;;;;;5060799;28;20048;-79
2022/03/07 02:51:59;;;;;;;5.55;1.42;;;11.90;52.80;;;;;;5078277;28;20053;-77
2022/03/07 02:54:24;;;;;;;4.22;0.93;;;11.90;52.70;;;;;;5078125;28;20495;-78
2022/03/07 02:56:50;;;;;;;4.82;1.08;;;11.90;52.70;;;;;;5060246;28;20052;-76
2022/03/07 02:59:16;;;;;;;3.20;0.70;;;11.90;52.60;;;;;;5078220;28;20128;-79
2022/03/07 03:01:44;;;;;;;4.00;0.85;;;11.80;52.60;;;;;;5058084;28;20452;-79
2022/03/07 03:04:10;;;;;;;2.88;0.70;;;11.80;52.50;;;;;;5040548;28;20053;-76
2022/03/07 03:06:36;;;;;;;4.70;0.85;;;11.80;52.50;;;;;;5040485;28;20341;-79
2022/03/07 03:09:03;;;;;;;2.97;0.60;;;11.80;52.60;;;;;;5040016;28;20049;-75
2022/03/07 03:11:29;;;;;;;5.13;1.05;;;11.80;52.60;;;;;;5040499;28;20095;-78
2022/03/07 03:13:54;;;;;;;3.08;0.88;;;11.80;52.60;;;;;;5057624;28;20080;-77
2022/03/07 03:16:20;;;;;;;2.72;0.60;;;11.70;52.80;;;;;;5057730;28;20053;-76
2022/03/07 03:18:46;;;;;;;3.72;0.88;;;11.70;52.80;;;;;;5057172;28;20456;-76
2022/03/07 03:21:11;;;;;;;2.45;0.70;;;11.70;52.80;;;;;;5057456;28;20045;-78
2022/03/07 03:23:37;;;;;;;2.65;0.73;;;11.70;52.80;;;;;;5057356;28;20091;-77
2022/03/07 03:26:03;;;;;;;3.58;0.95;;;11.70;52.80;;;;;;5057297;28;20048;-77
2022/03/07 03:28:29;;;;;;;2.72;0.60;;;11.70;52.80;;;;;;5057560;28;20106;-79
2022/03/07 03:30:55;;;;;;;3.20;0.60;;;11.70;52.80;;;;;;5057158;28;20049;-77
2022/03/07 03:33:21;;;;;;;3.30;0.75;;;11.70;52.70;;;;;;5055502;28;20107;-77
2022/03/07 03:35:47;;;;;;;3.58;0.88;;;11.70;52.80;;;;;;5057071;28;20061;-77
2022/03/07 03:38:14;;;;;;;2.75;0.50;;;11.60;52.80;;;;;;5056713;28;20061;-77
2022/03/07 03:40:39;;;;;;;3.75;0.88;;;11.60;52.80;;;;;;5056433;28;20143;-76
2022/03/07 03:43:05;;;;;;;3.22;0.50;;;11.60;52.80;;;;;;5057375;28;20053;-76
2022/03/07 03:45:31;;;;;;;2.75;0.63;;;11.60;52.90;;;;;;5056989;28;20110;-77
2022/03/07 03:47:57;;;;;;;3.72;0.68;;;11.50;52.80;;;;;;5039748;28;20052;-78
2022/03/07 03:50:23;;;;;;;1.85;0.73;;;11.50;52.80;;;;;;5056271;28;20049;-77
2022/03/07 03:52:49;;;;;;;2.53;0.77;;;11.50;52.80;;;;;;5056959;28;20072;-77
2022/03/07 03:55:16;;;;;;;1.55;0.55;;;11.50;52.80;;;;;;5057013;28;20359;-78
2022/03/07 03:57:43;;;;;;;2.70;0.50;;;11.50;52.90;;;;;;5057032;28;20063;-77
2022/03/07 04:00:12;;;;;;;2.95;0.50;;;11.50;52.90;;;;;;5039346;28;20044;-77
2022/03/07 04:02:38;;;;;;;3.40;0.60;;;11.50;52.70;;;;;;5023712;28;20064;-77
2022/03/07 04:05:05;;;;;;;1.65;0.45;;;11.50;52.70;;;;;;5056594;28;20130;-77
2022/03/07 04:07:30;;;;;;;1.65;0.43;;;11.40;52.70;;;;;;5056592;28;20036;-77
2022/03/07 04:09:56;;;;;;;3.03;0.57;;;11.50;52.80;;;;;;5056105;28;20044;-76
2022/03/07 04:12:22;;;;;;;3.90;0.65;;;11.50;52.80;;;;;;5056892;28;20399;-78
2022/03/07 04:14:47;;;;;;;2.38;0.65;;;11.40;52.70;;;;;;5022297;28;20045;-78
2022/03/07 04:17:13;;;;;;;2.97;0.65;;;11.40;52.80;;;;;;5056779;28;20146;-77
2022/03/07 04:19:39;;;;;;;1.80;0.50;;;11.40;52.80;;;;;;5056845;28;20063;-77
2022/03/07 04:22:04;;;;;;;2.00;0.77;;;11.40;52.80;;;;;;5022593;28;20053;-75
2022/03/07 04:24:31;;;;;;;2.63;0.50;;;11.40;52.80;;;;;;5038579;28;20041;-75
2022/03/07 04:26:58;;;;;;;1.58;0.40;;;11.40;52.80;;;;;;5056319;28;20458;-77
2022/03/07 04:29:23;;;;;;;2.15;0.57;;;11.40;52.70;;;;;;5056207;28;20060;-77
2022/03/07 04:31:49;;;;;;;4.18;0.68;;;11.40;52.70;;;;;;5062604;28;20056;-78
2022/03/07 04:34:15;;;;;;;0.88;0.32;;;11.30;52.80;;;;;;5058490;28;20045;-78
2022/03/07 04:36:41;;;;;;;1.27;0.50;;;11.30;52.80;;;;;;5058677;28;20048;-78
2022/03/07 04:39:08;;;;;;;1.73;0.63;;;11.30;52.80;;;;;;5075805;28;20469;-76
2022/03/07 04:41:34;;;;;;;2.95;0.47;;;11.30;52.80;;;;;;5076232;28;20048;-76
2022/03/07 04:44:01;;;;;;;6.25;0.80;;;11.30;52.80;;;;;;5076013;28;20388;-78
2022/03/07 04:46:28;;;;;;;2.30;0.70;;;11.30;52.70;;;;;;5058449;28;20048;-77
2022/03/07 04:48:53;;;;;;;1.65;0.50;;;11.30;52.70;;;;;;5076031;28;20062;-79
2022/03/07 04:51:19;;;;;;;4.38;0.93;;;11.20;52.70;;;;;;5058129;28;20056;-77
2022/03/07 04:53:45;;;;;;;3.83;0.90;;;11.20;52.60;;;;;;5075601;28;20048;-78
2022/03/07 04:56:11;;;;;;;4.22;0.57;;;11.20;52.70;;;;;;5075740;28;20049;-74
2022/03/07 04:58:37;;;;;;;2.65;0.60;;;11.20;52.70;;;;;;5057993;28;20099;-76
2022/03/07 05:01:04;;;;;;;3.67;0.38;;;11.20;52.80;;;;;;5074756;28;20052;-78
2022/03/07 05:03:29;;;;;;;1.92;0.50;;;11.20;52.80;;;;;;5038169;28;20057;-76
2022/03/07 05:05:56;;;;;;;2.22;0.60;;;11.10;53.40;;;;;;5055532;28;20128;-77
2022/03/07 05:08:21;;;;;;;2.05;0.55;;;11.10;52.80;;;;;;5055637;28;20049;-77
2022/03/07 05:10:47;;;;;;;1.48;0.40;;;11.10;52.70;;;;;;5038032;28;20056;-75
2022/03/07 05:13:14;;;;;;;2.90;0.40;;;11.20;52.70;;;;;;5054373;28;20055;-77
2022/03/07 05:15:39;;;;;;;2.55;0.50;;;11.20;52.60;;;;;;5037803;28;20052;-77
2022/03/07 05:18:06;;;;;;;4.53;0.50;;;11.10;52.60;;;;;;5054367;28;20106;-77
2022/03/07 05:20:32;;;;;;;1.63;0.52;;;11.10;52.50;;;;;;5062398;28;20045;-76
2022/03/07 05:22:58;;;;;;;1.73;0.55;;;11.10;52.50;;;;;;5073827;28;20117;-77
2022/03/07 05:25:24;;;;;;;2.40;0.63;;;11.10;53.00;;;;;;5048331;28;20176;-76
2022/03/07 05:27:51;;;;;;;2.08;0.65;;;11.20;52.80;;;;;;5054972;28;20052;-76
2022/03/07 05:30:19;;;;;;;2.58;0.52;;;11.20;52.10;;;;;;5067537;28;20122;-79
2022/03/07 05:32:47;;;;;;;2.28;0.57;;;11.30;51.40;;;;;;5056523;28;20161;-77
2022/03/07 05:35:14;;;;;;;2.40;0.60;;;11.30;50.70;;;;;;5057604;28;20048;-81
2022/03/07 05:37:39;;;;;;;2.20;0.70;;;11.30;49.90;;;;;;5074775;28;20045;-67
2022/03/07 05:40:07;;;;;;;2.92;0.70;;;11.30;49.30;;;;;;5057135;28;20062;-79
2022/03/07 05:42:37;;;;;;;3.47;0.68;;;11.30;49.30;;;;;;5053595;28;20044;-77
2022/03/07 05:45:05;;;;;;;8.35;2.45;;;11.30;50.00;;;;;;5074195;28;20079;-73
2022/03/07 05:47:31;;;;;;;6.25;0.70;;;11.30;51.70;;;;;;5054125;28;20041;-78
2022/03/07 05:50:06;;;;;;;5.03;0.70;;;11.10;51.10;;;;;;5054512;28;20114;-81
2022/03/07 05:52:31;;;;;;;5.60;1.02;;;11.20;52.00;;;;;;5054980;28;20116;-77
2022/03/07 05:54:57;;;;;;;5.45;0.95;;;11.50;52.20;;;;;;5038211;28;20135;-77
2022/03/07 05:57:23;;;;;;;2.13;0.60;;;11.70;52.20;;;;;;5059352;28;20064;-78
2022/03/07 05:59:49;;;;;;;3.70;0.70;;;12.00;52.30;;;;;;5059432;28;20456;-75
2022/03/07 06:02:14;;;;;;;3.50;0.60;;;12.20;52.20;;;;;;5025881;28;20060;-77
2022/03/07 06:04:42;;;;;;;5.90;0.95;;;12.40;52.50;;;;;;5061180;28;20361;-75
2022/03/07 06:07:08;;;;;;;4.63;1.08;;;12.60;52.60;;;;;;5079006;28;20409;-73
2022/03/07 06:09:34;;;;;;;10.50;0.85;;;12.60;52.40;;;;;;5078669;28;20041;-76
2022/03/07 06:12:00;;;;;;;6.13;1.05;;;12.80;53.10;;;;;;5061007;28;20102;-73
2022/03/07 06:14:25;;;;;;;6.00;1.02;;;13.00;53.60;;;;;;5061325;28;20044;-75
2022/03/07 06:16:51;;;;;;;3.58;0.40;;;13.10;53.60;;;;;;5061060;28;20118;-72
2022/03/07 06:19:17;;;;;;;3.60;0.63;;;13.30;53.60;;;;;;5060954;28;20143;-73
2022/03/07 06:21:43;;;;;;;10.90;1.58;;;13.40;53.20;;;;;;5078688;28;20119;-71
2022/03/07 06:24:08;;;;;;;6.65;0.80;;;13.50;53.90;;;;;;5078647;28;20055;-75
2022/03/07 06:26:35;;;;;;;11.85;0.98;;;13.60;54.30;;;;;;5061034;28;20040;-74
2022/03/07 06:29:02;;;;;;;9.45;1.05;;;13.70;54.80;;;;;;5061050;28;20083;-71
2022/03/07 06:31:27;;;;;;;4.85;1.00;;;13.80;56.00;;;;;;5060960;28;20118;-71
2022/03/07 06:33:53;;;;;;;6.55;0.90;;;13.90;56.70;;;;;;5060524;28;20036;-74
2022/03/07 06:36:19;;;;;;;7.97;1.15;;;14.10;56.90;;;;;;5078571;28;20044;-74
2022/03/07 06:38:44;;;;;;;9.48;1.33;;;14.20;57.20;;;;;;5060360;28;20467;-75
2022/03/07 06:41:10;;;;;;;16.98;1.90;;;14.30;57.10;;;;;;5060882;28;20048;-75
2022/03/07 06:43:37;;;;;;;8.55;1.00;;;14.40;57.00;;;;;;5081742;28;20052;-74
2022/03/07 06:46:03;;;;;;;9.20;1.25;;;14.50;57.10;;;;;;5099029;28;20358;-75
2022/03/07 06:48:29;;;;;;;9.70;0.80;;;14.60;57.10;;;;;;5098261;28;20044;-70
2022/03/07 06:50:54;;;;;;;10.20;1.00;;;14.70;57.00;;;;;;5097538;28;20374;-75
2022/03/07 06:53:20;;;;;;;6.55;0.95;;;14.80;56.90;;;;;;5082057;28;20047;-72
2022/03/07 06:55:46;;;;;;;9.38;1.00;;;14.80;56.40;;;;;;5060322;28;20415;-73
2022/03/07 06:58:12;;;;;;;9.40;1.38;;;14.90;56.10;;;;;;5057761;28;20071;-75
2022/03/07 07:00:38;;;;;;;12.20;1.95;;;14.90;56.00;;;;;;5072883;28;20481;-74
2022/03/07 07:03:05;;;;;;;14.13;1.63;;;15.00;55.50;;;;;;5040250;28;20053;-75
2022/03/07 07:05:32;;;;;;;7.65;1.13;;;15.00;55.30;;;;;;5077800;28;20071;-74
2022/03/07 07:07:58;;;;;;;11.43;0.82;;;15.10;55.00;;;;;;5060109;28;20094;-75
2022/03/07 07:10:25;;;;;;;4.90;1.08;;;15.20;54.70;;;;;;5077432;28;20098;-72
2022/03/07 07:12:51;;;;;;;11.32;1.33;;;15.10;50.20;;;;;;5072710;28;20341;-74
2022/03/07 07:15:17;;;;;;;10.23;1.20;;;15.00;53.90;;;;;;5064712;28;20110;-70
2022/03/07 07:17:43;;;;;;;13.27;1.45;;;15.10;54.80;;;;;;5057728;28;20079;-74
2022/03/07 07:20:10;;;;;;;9.35;1.23;;;15.20;54.40;;;;;;5076627;28;20109;-75
2022/03/07 07:22:36;;;;;;;9.40;0.93;;;15.30;53.50;;;;;;5077440;28;20056;-73
2022/03/07 07:25:04;;;;;;;6.60;1.13;;;15.40;53.30;;;;;;5059868;28;20056;-73
2022/03/07 07:27:29;;;;;;;4.45;0.70;;;15.30;53.20;;;;;;5077042;28;20129;-74
2022/03/07 07:29:55;;;;;;;6.30;1.15;;;15.40;53.00;;;;;;5077448;28;20180;-73
2022/03/07 07:32:21;;;;;;;6.15;0.77;;;15.30;52.90;;;;;;5057175;28;20440;-74
2022/03/07 07:34:47;;;;;;;12.13;1.30;;;15.30;52.90;;;;;;5057266;28;20044;-74
2022/03/07 07:37:12;;;;;;;5.18;1.08;;;15.30;53.00;;;;;;5066771;28;20064;-74
2022/03/07 07:39:38;;;;;;;8.88;0.98;;;15.20;53.00;;;;;;5070614;28;20135;-77
2022/03/07 07:42:07;;;;;;;5.80;0.82;;;15.10;53.00;;;;;;5072973;28;20053;-78
2022/03/07 07:44:33;;;;;;;2.83;0.85;;;15.10;53.20;;;;;;5076891;28;20050;-76
2022/03/07 07:46:59;;;;;;;6.88;1.30;;;15.10;53.40;;;;;;5059564;28;20127;-79
2022/03/07 07:49:25;;;;;;;9.57;1.20;;;15.00;53.60;;;;;;5077001;28;20422;-80
2022/03/07 07:51:51;;;;;;;11.98;1.23;;;14.90;53.60;;;;;;5042744;28;20051;-76
2022/03/07 07:54:17;;;;;;;10.75;1.52;;;14.80;53.30;;;;;;5058847;28;20044;-77
2022/03/07 07:56:43;;;;;;;7.72;1.65;;;14.60;52.80;;;;;;5076848;28;20052;-77
2022/03/07 07:59:10;;;;;;;17.50;2.33;;;14.60;53.90;;;;;;5059462;28;20049;-77
2022/03/07 08:01:36;;;;;;;22.70;1.90;;;14.70;55.10;;;;;;5076604;28;20080;-78
2022/03/07 08:04:02;;;;;;;17.30;2.08;;;14.80;55.10;;;;;;5041962;28;20447;-80
2022/03/07 08:06:27;;;;;;;7.75;1.52;;;14.80;55.40;;;;;;5042357;28;20084;-81
2022/03/07 08:08:53;;;;;;;5.55;1.60;;;14.80;55.00;;;;;;5057132;28;20033;-80
2022/03/07 08:11:19;;;;;;;6.50;1.88;;;14.80;53.40;;;;;;5022258;28;20356;-80
2022/03/07 08:13:44;;;;;;;6.07;1.95;;;14.80;52.00;;;;;;5022372;28;20040;-80
2022/03/07 08:16:10;;;;;;;5.80;1.77;;;14.70;50.60;;;;;;5021972;28;20107;-78
2022/03/07 08:18:36;;;;;;;5.18;1.80;;;14.60;50.20;;;;;;5055360;28;20047;-78
2022/03/07 08:21:02;;;;;;;4.55;1.98;;;14.60;50.40;;;;;;5054886;28;20051;-77
2022/03/07 08:23:28;;;;;;;4.45;1.20;;;14.50;50.50;;;;;;5049380;28;20075;-80
2022/03/07 08:25:53;;;;;;;5.88;1.60;;;14.40;50.40;;;;;;5075352;28;20094;-80
2022/03/07 08:28:19;;;;;;;6.00;1.50;;;14.30;50.80;;;;;;5055180;28;20056;-75
2022/03/07 08:30:45;;;;;;;7.60;1.83;;;14.20;50.90;;;;;;5073778;28;20040;-75
2022/03/07 08:33:11;;;;;;;8.13;1.80;;;14.10;51.40;;;;;;5048914;28;20063;-78
2022/03/07 08:35:37;;;;;;;3.70;1.40;;;14.10;51.90;;;;;;5047606;28;20102;-74
2022/03/07 08:38:03;;;;;;;8.32;1.85;;;14.00;52.10;;;;;;5066805;28;20131;-75
2022/03/07 08:40:28;;;;;;;4.38;1.65;;;14.00;52.20;;;;;;5055818;28;20191;-76
2022/03/07 08:42:54;;;;;;;8.77;2.20;;;14.00;52.50;;;;;;5058194;28;20469;-76
2022/03/07 08:45:28;;;;;;;7.93;1.15;;;14.00;52.10;;;;;;5056730;28;20459;-77
2022/03/07 08:47:55;;;;;;;4.13;1.35;;;14.00;52.00;;;;;;5076423;28;20135;-75
2022/03/07 08:50:21;;;;;;;4.78;1.23;;;14.00;52.50;;;;;;5046580;28;20057;-78
2022/03/07 08:52:47;;;;;;;8.35;1.88;;;14.00;52.80;;;;;;5075167;28;20051;-77
2022/03/07 08:55:14;;;;;;;3.95;1.77;;;14.00;53.30;;;;;;5057636;28;20048;-75
2022/03/07 08:57:40;;;;;;;4.15;1.10;;;14.00;53.80;;;;;;5075656;28;20064;-76
2022/03/07 09:00:08;;;;;;;5.65;1.27;;;14.10;54.00;;;;;;5075922;28;20048;-77
2022/03/07 09:02:34;;;;;;;6.55;1.00;;;14.00;54.50;;;;;;5057757;28;20052;-77
2022/03/07 09:05:00;;;;;;;2.70;1.10;;;14.10;54.90;;;;;;5051160;28;20520;-77
2022/03/07 09:07:28;;;;;;;3.22;1.05;;;14.10;55.10;;;;;;5079452;28;20059;-76
2022/03/07 09:09:58;;;;;;;2.30;1.00;;;14.10;55.00;;;;;;5058487;28;20040;-75
2022/03/07 09:12:27;;;;;;;6.85;1.50;;;14.00;55.10;;;;;;5073398;28;20124;-76
2022/03/07 09:14:55;;;;;;;14.18;1.58;;;14.00;54.80;;;;;;5071513;28;20067;-80
2022/03/07 09:17:21;;;;;;;4.80;1.10;;;14.10;55.00;;;;;;5071255;28;20047;-75
2022/03/07 09:19:47;;;;;;;8.95;1.42;;;14.10;55.20;;;;;;5069595;28;20467;-74
2022/03/07 09:22:12;;;;;;;16.30;1.60;;;14.10;55.30;;;;;;5068066;28;20495;-75
2022/03/07 09:24:39;;;;;;;17.90;2.08;;;14.10;55.30;;;;;;5073335;28;20044;-76
2022/03/07 09:27:05;;;;;;;20.08;2.22;;;13.90;55.70;;;;;;5067167;28;20143;-75
2022/03/07 09:29:48;;;;;;;43.65;4.20;;;13.70;56.10;;;;;;5057538;28;20127;-75
2022/03/07 09:32:13;;;;;;;10.55;1.88;;;13.50;56.80;;;;;;5060455;28;20047;-77
2022/03/07 09:34:39;;;;;;;16.85;2.03;;;13.50;56.50;;;;;;5066900;28;20544;-77
2022/03/07 09:37:10;;;;;;;10.23;1.48;;;13.60;56.00;;;;;;5054434;28;20106;-82
2022/03/07 09:39:36;;;;;;;9.57;1.60;;;13.70;55.70;;;;;;5073950;28;20040;-80
2022/03/07 09:42:02;;;;;;;4.63;1.33;;;13.70;55.60;;;;;;5056539;28;20059;-73
2022/03/07 09:44:29;;;;;;;11.30;2.35;;;13.70;56.00;;;;;;5053463;28;20124;-78
2022/03/07 09:47:00;;;;;;;10.45;2.80;;;13.80;57.20;;;;;;5067440;28;20673;-75
2022/03/07 09:49:29;;;;;;;10.73;2.50;;;13.90;58.60;;;;;;5074508;28;20122;-77
2022/03/07 09:51:55;;;;;;;15.73;1.90;;;13.90;58.50;;;;;;5059159;28;20156;-75
2022/03/07 09:54:27;;;;;;;8.43;2.00;;;13.90;58.90;;;;;;5080173;28;20130;-82
2022/03/07 09:56:54;;;;;;;12.00;2.15;;;14.00;59.00;;;;;;5065707;28;20045;-78
2022/03/07 09:59:21;;;;;;;12.50;2.28;;;14.00;60.60;;;;;;5074071;28;20045;-78
2022/03/07 10:02:05;;;;;;;12.73;1.80;;;14.00;60.30;;;;;;5058999;28;20049;-79
2022/03/07 10:04:31;;;;;;;15.45;2.25;;;14.00;60.10;;;;;;5085319;28;20036;-81
2022/03/07 10:07:01;;;;;;;13.07;2.20;;;14.10;59.60;;;;;;5036886;28;20041;-79
2022/03/07 10:09:28;;;;;;;8.50;1.30;;;14.10;59.50;;;;;;5047004;28;20460;-79
2022/03/07 10:12:00;;;;;;;11.63;1.60;;;14.10;59.30;;;;;;5037550;28;20080;-79
2022/03/07 10:14:44;;;;;;;11.57;1.63;;;14.10;59.30;;;;;;5040038;28;20049;-76
2022/03/07 10:17:27;;;;;;;8.32;1.25;;;14.10;59.20;;;;;;5064591;28;20044;-79
2022/03/07 10:19:55;;;;;;;12.32;1.40;;;14.20;58.90;;;;;;5074681;28;20430;-79
2022/03/07 10:22:23;;;;;;;10.40;1.25;;;14.10;58.70;;;;;;5073945;28;20040;-76
2022/03/07 10:25:03;;;;;;;7.28;1.55;;;14.20;58.50;;;;;;5049088;28;20049;-77
2022/03/07 10:27:31;;;;;;;7.82;1.33;;;14.20;58.40;;;;;;5037093;28;20083;-75
2022/03/07 10:29:56;;;;;;;7.28;1.30;;;14.20;58.20;;;;;;5054777;28;20052;-79
2022/03/07 10:32:22;;;;;;;6.50;0.88;;;14.20;57.90;;;;;;5054577;28;20049;-79
2022/03/07 10:34:48;;;;;;;5.38;0.80;;;14.20;57.70;;;;;;5054844;28;20049;-78
2022/03/07 10:37:14;;;;;;;5.95;0.95;;;14.20;57.50;;;;;;5054570;28;20444;-78
2022/03/07 10:39:52;;;;;;;5.95;1.17;;;14.20;57.40;;;;;;5068239;28;20132;-77
2022/03/07 10:42:20;;;;;;;6.00;1.00;;;14.20;56.90;;;;;;5059731;28;20056;-75
2022/03/07 10:44:47;;;;;;;3.63;0.70;;;14.20;56.70;;;;;;5072235;28;20061;-77
2022/03/07 10:47:16;;;;;;;3.72;0.73;;;14.20;56.60;;;;;;5041553;28;20049;-76
2022/03/07 10:49:55;;;;;;;5.60;1.13;;;14.20;56.50;;;;;;5073752;28;20070;-77
2022/03/07 10:52:22;;;;;;;4.13;0.70;;;14.10;56.50;;;;;;5058663;28;20045;-79
2022/03/07 10:54:49;;;;;;;5.45;0.95;;;14.10;56.50;;;;;;5043831;28;20045;-79
2022/03/07 10:57:20;;;;;;;4.45;0.82;;;14.10;56.70;;;;;;5087256;28;20139;-78
2022/03/07 10:59:47;;;;;;;2.10;0.60;;;14.10;56.70;;;;;;5096476;28;20050;-77
2022/03/07 11:02:16;;;;;;;5.82;0.93;;;14.10;56.80;;;;;;5077833;28;20049;-78
2022/03/07 11:04:44;;;;;;;3.75;0.82;;;14.10;56.80;;;;;;5077724;28;20040;-76
2022/03/07 11:07:10;;;;;;;3.90;0.75;;;14.10;56.80;;;;;;5060433;28;20056;-77
2022/03/07 11:09:37;;;;;;;3.65;0.50;;;14.10;56.70;;;;;;5078005;28;20067;-77
2022/03/07 11:12:03;;;;;;;2.28;0.80;;;14.10;56.60;;;;;;5078000;28;20048;-79
2022/03/07 11:14:30;;;;;;;4.35;0.60;;;14.10;56.60;;;;;;5070541;28;20067;-79
2022/03/07 11:16:56;;;;;;;3.65;0.63;;;14.10;56.60;;;;;;5057912;28;20049;-78
2022/03/07 11:19:26;;;;;;;3.10;0.50;;;14.00;56.50;;;;;;5057558;28;20051;-76
2022/03/07 11:21:54;;;;;;;3.22;0.85;;;14.10;56.40;;;;;;5039454;28;20064;-80
2022/03/07 11:24:25;;;;;;;1.35;0.63;;;14.00;56.30;;;;;;5051283;28;20049;-75
2022/03/07 11:26:53;;;;;;;6.85;0.90;;;14.10;56.20;;;;;;5066326;28;20048;-76
2022/03/07 11:29:19;;;;;;;3.58;0.70;;;14.10;56.20;;;;;;5043583;28;20106;-79
2022/03/07 11:31:46;;;;;;;2.67;0.60;;;14.00;56.20;;;;;;5077201;28;20414;-76
2022/03/07 11:34:13;;;;;;;3.20;0.80;;;14.00;56.10;;;;;;5046639;28;20056;-75
2022/03/07 11:36:49;;;;;;;3.80;0.80;;;14.00;56.00;;;;;;5039888;28;20463;-80
2022/03/07 11:39:31;;;;;;;2.25;0.75;;;14.10;55.90;;;;;;5065296;28;20094;-79
2022/03/07 11:42:15;;;;;;;1.85;0.50;;;14.10;56.20;;;;;;5080218;28;20118;-80
2022/03/07 11:44:44;;;;;;;2.58;0.68;;;14.00;56.20;;;;;;5092073;28;20036;-76
2022/03/07 11:47:16;;;;;;;6.93;0.90;;;14.00;56.00;;;;;;5077073;28;20044;-78
2022/03/07 11:49:43;;;;;;;2.05;0.60;;;14.00;56.20;;;;;;5073348;28;20142;-77
2022/03/07 11:52:17;;;;;;;3.10;0.50;;;14.00;56.20;;;;;;5054684;28;20052;-76
2022/03/07 11:55:12;;;;;;;4.18;0.45;;;14.00;56.30;;;;;;5056897;28;20371;-77
2022/03/07 11:57:44;;;;;;;10.88;1.23;;;14.00;55.70;;;;;;5065315;28;20453;-74
2022/03/07 12:00:19;;;;;;;11.80;1.13;;;14.00;54.90;;;;;;5059060;28;20060;-75
2022/03/07 12:02:58;;;;;;;5.82;0.82;;;14.00;54.10;;;;;;5068055;28;20041;-75
2022/03/07 12:05:32;;;;;;;4.75;1.00;;;14.00;53.40;;;;;;5070404;28;20052;-76
2022/03/07 12:08:13;;;;;;;3.70;1.05;;;13.90;52.80;;;;;;5063262;28;20083;-79
2022/03/07 12:10:53;;;;;;;8.07;1.20;;;13.90;53.10;;;;;;5050786;28;20060;-77
2022/03/07 12:13:19;;;;;;;7.32;1.17;;;13.90;52.50;;;;;;5022766;28;20056;-79
2022/03/07 12:15:49;;;;;;;8.80;1.67;;;13.90;52.70;;;;;;5038908;28;20041;-78
2022/03/07 12:18:16;;;;;;;7.75;1.42;;;13.80;52.40;;;;;;5056386;28;20119;-79
2022/03/07 12:20:56;;;;;;;3.83;0.90;;;13.90;52.10;;;;;;5056167;28;20411;-81
2022/03/07 12:23:25;;;;;;;4.55;1.10;;;13.90;51.80;;;;;;5070066;28;20063;-77
2022/03/07 12:26:05;;;;;;;8.82;1.35;;;13.90;51.80;;;;;;5037901;28;20055;-77
2022/03/07 12:28:36;;;;;;;3.63;0.73;;;13.80;52.20;;;;;;5073642;28;20074;-76
2022/03/07 12:31:04;;;;;;;3.80;1.00;;;13.80;52.00;;;;;;5058468;28;20046;-75
2022/03/07 12:33:30;;;;;;;5.55;1.20;;;13.80;52.00;;;;;;5054449;28;20114;-77
2022/03/07 12:36:12;;;;;;;5.07;0.93;;;13.80;52.00;;;;;;5045529;28;20052;-75
2022/03/07 12:38:55;;;;;;;3.88;1.02;;;13.80;52.10;;;;;;5056074;28;20060;-76
2022/03/07 12:41:28;;;;;;;5.13;1.10;;;13.90;52.00;;;;;;5075736;28;20053;-75
2022/03/07 12:43:54;;;;;;;3.83;0.60;;;13.90;52.20;;;;;;5076013;28;20471;-76
2022/03/07 12:46:22;;;;;;;4.72;0.75;;;13.90;52.30;;;;;;5075809;28;20044;-75